sensor_id;sensor_type;location;lat;lon;timestamp;pressure;altitude;pressure_sealevel;temperature;humidity
61113;BME280;47184;57.998;56.184;2023-04-27T00:00:51;99312.94;;;13.83;55.49
61113;BME280;47184;57.998;56.184;2023-04-27T00:03:17;99314.81;;;13.89;55.64
61113;BME280;47184;57.998;56.184;2023-04-27T00:05:43;99308.81;;;13.74;56.02
61113;BME280;47184;57.998;56.184;2023-04-27T00:08:09;99305.31;;;13.67;56.16
61113;BME280;47184;57.998;56.184;2023-04-27T00:10:35;99310.44;;;13.68;56.01
61113;BME280;47184;57.998;56.184;2023-04-27T00:13:02;99309.44;;;13.69;56.46
61113;BME280;47184;57.998;56.184;2023-04-27T00:15:28;99293.22;;;13.51;56.33
61113;BME280;47184;57.998;56.184;2023-04-27T00:17:54;99306.94;;;13.61;56.18
61113;BME280;47184;57.998;56.184;2023-04-27T00:20:22;99306.50;;;13.57;56.40
61113;BME280;47184;57.998;56.184;2023-04-27T00:22:48;99276.22;;;13.38;56.31
61113;BME280;47184;57.998;56.184;2023-04-27T00:25:14;99302.19;;;13.50;56.73
61113;BME280;47184;57.998;56.184;2023-04-27T00:27:40;99286.91;;;13.52;56.63
61113;BME280;47184;57.998;56.184;2023-04-27T00:30:09;99298.28;;;13.46;56.97
61113;BME280;47184;57.998;56.184;2023-04-27T00:32:35;99293.78;;;13.40;57.12
61113;BME280;47184;57.998;56.184;2023-04-27T00:35:01;99284.41;;;13.44;57.24
61113;BME280;47184;57.998;56.184;2023-04-27T00:37:30;99287.63;;;13.32;57.09
61113;BME280;47184;57.998;56.184;2023-04-27T00:39:56;99298.00;;;13.27;57.47
61113;BME280;47184;57.998;56.184;2023-04-27T00:42:22;99295.63;;;13.39;57.36
61113;BME280;47184;57.998;56.184;2023-04-27T00:44:50;99288.88;;;13.36;57.18
61113;BME280;47184;57.998;56.184;2023-04-27T00:47:17;99288.22;;;13.28;58.01
61113;BME280;47184;57.998;56.184;2023-04-27T00:49:44;99290.69;;;13.36;57.50
61113;BME280;47184;57.998;56.184;2023-04-27T00:52:10;99272.59;;;13.18;57.82
61113;BME280;47184;57.998;56.184;2023-04-27T00:54:36;99291.03;;;13.26;57.90
61113;BME280;47184;57.998;56.184;2023-04-27T00:57:03;99285.63;;;13.41;57.17
61113;BME280;47184;57.998;56.184;2023-04-27T00:59:29;99285.78;;;13.33;57.97
61113;BME280;47184;57.998;56.184;2023-04-27T01:01:55;99242.50;;;12.98;57.93
61113;BME280;47184;57.998;56.184;2023-04-27T01:04:21;99282.91;;;13.28;58.12
61113;BME280;47184;57.998;56.184;2023-04-27T01:06:48;99269.28;;;13.09;58.38
61113;BME280;47184;57.998;56.184;2023-04-27T01:09:14;99289.34;;;13.19;58.79
61113;BME280;47184;57.998;56.184;2023-04-27T01:11:45;99293.28;;;13.23;58.37
61113;BME280;47184;57.998;56.184;2023-04-27T01:14:11;99285.19;;;13.37;57.90
61113;BME280;47184;57.998;56.184;2023-04-27T01:16:38;99290.28;;;13.32;58.79
61113;BME280;47184;57.998;56.184;2023-04-27T01:19:06;99286.28;;;13.50;57.87
61113;BME280;47184;57.998;56.184;2023-04-27T01:21:33;99286.88;;;13.45;58.16
61113;BME280;47184;57.998;56.184;2023-04-27T01:23:59;99278.78;;;13.60;57.70
61113;BME280;47184;57.998;56.184;2023-04-27T01:26:29;99286.59;;;13.81;57.23
61113;BME280;47184;57.998;56.184;2023-04-27T01:28:58;99281.47;;;13.73;57.22
61113;BME280;47184;57.998;56.184;2023-04-27T01:31:29;99287.47;;;13.88;56.97
61113;BME280;47184;57.998;56.184;2023-04-27T01:33:57;99280.09;;;13.91;56.68
61113;BME280;47184;57.998;56.184;2023-04-27T01:36:23;99280.94;;;13.98;56.95
61113;BME280;47184;57.998;56.184;2023-04-27T01:38:49;99274.78;;;13.84;57.06
61113;BME280;47184;57.998;56.184;2023-04-27T01:41:16;99281.13;;;13.90;56.79
61113;BME280;47184;57.998;56.184;2023-04-27T01:43:42;99280.31;;;13.96;56.88
61113;BME280;47184;57.998;56.184;2023-04-27T01:46:10;99275.03;;;14.02;56.78
61113;BME280;47184;57.998;56.184;2023-04-27T01:48:37;99290.34;;;14.07;56.22
61113;BME280;47184;57.998;56.184;2023-04-27T01:51:03;99289.97;;;14.17;56.30
61113;BME280;47184;57.998;56.184;2023-04-27T01:53:29;99282.38;;;14.07;56.65
61113;BME280;47184;57.998;56.184;2023-04-27T01:55:56;99246.00;;;13.81;56.33
61113;BME280;47184;57.998;56.184;2023-04-27T01:58:24;99229.06;;;13.95;55.76
61113;BME280;47184;57.998;56.184;2023-04-27T02:00:51;99287.09;;;14.05;56.47
61113;BME280;47184;57.998;56.184;2023-04-27T02:03:19;99282.00;;;14.10;56.33
61113;BME280;47184;57.998;56.184;2023-04-27T02:05:45;99281.19;;;14.09;56.33
61113;BME280;47184;57.998;56.184;2023-04-27T02:08:13;99268.94;;;14.22;55.89
61113;BME280;47184;57.998;56.184;2023-04-27T02:10:40;99284.28;;;14.26;56.01
61113;BME280;47184;57.998;56.184;2023-04-27T02:13:06;99286.09;;;14.26;55.97
61113;BME280;47184;57.998;56.184;2023-04-27T02:15:34;99278.13;;;14.19;56.10
61113;BME280;47184;57.998;56.184;2023-04-27T02:18:04;99280.16;;;14.24;55.98
61113;BME280;47184;57.998;56.184;2023-04-27T02:20:31;99279.75;;;14.20;56.62
61113;BME280;47184;57.998;56.184;2023-04-27T02:22:59;99305.53;;;14.40;55.98
61113;BME280;47184;57.998;56.184;2023-04-27T02:25:27;99291.41;;;14.32;55.83
61113;BME280;47184;57.998;56.184;2023-04-27T02:27:53;99288.75;;;14.26;56.33
61113;BME280;47184;57.998;56.184;2023-04-27T02:30:20;99290.78;;;14.24;56.13
61113;BME280;47184;57.998;56.184;2023-04-27T02:32:46;99289.19;;;14.36;55.92
61113;BME280;47184;57.998;56.184;2023-04-27T02:35:12;99292.03;;;14.28;56.21
61113;BME280;47184;57.998;56.184;2023-04-27T02:37:38;99295.50;;;14.28;56.07
61113;BME280;47184;57.998;56.184;2023-04-27T02:40:05;99304.28;;;14.35;56.37
61113;BME280;47184;57.998;56.184;2023-04-27T02:42:34;99292.22;;;14.20;56.30
61113;BME280;47184;57.998;56.184;2023-04-27T02:45:04;99307.16;;;14.27;56.31
61113;BME280;47184;57.998;56.184;2023-04-27T02:47:31;99307.50;;;14.11;57.09
61113;BME280;47184;57.998;56.184;2023-04-27T02:49:57;99305.84;;;14.03;57.07
61113;BME280;47184;57.998;56.184;2023-04-27T02:52:23;99288.09;;;13.97;57.32
61113;BME280;47184;57.998;56.184;2023-04-27T02:54:49;99308.56;;;14.17;56.81
61113;BME280;47184;57.998;56.184;2023-04-27T02:57:15;99308.13;;;14.06;57.26
61113;BME280;47184;57.998;56.184;2023-04-27T02:59:41;99308.31;;;13.98;57.61
61113;BME280;47184;57.998;56.184;2023-04-27T03:02:08;99288.88;;;13.91;57.04
61113;BME280;47184;57.998;56.184;2023-04-27T03:04:34;99320.53;;;13.93;57.69
61113;BME280;47184;57.998;56.184;2023-04-27T03:07:04;99316.25;;;13.98;57.50
61113;BME280;47184;57.998;56.184;2023-04-27T03:09:31;99307.84;;;13.81;57.70
61113;BME280;47184;57.998;56.184;2023-04-27T03:11:57;99311.16;;;13.97;57.89
61113;BME280;47184;57.998;56.184;2023-04-27T03:14:23;99314.88;;;14.09;57.43
61113;BME280;47184;57.998;56.184;2023-04-27T03:16:50;99300.97;;;14.07;57.24
61113;BME280;47184;57.998;56.184;2023-04-27T03:19:17;99309.16;;;14.19;57.22
61113;BME280;47184;57.998;56.184;2023-04-27T03:21:43;99302.44;;;14.23;57.10
61113;BME280;47184;57.998;56.184;2023-04-27T03:24:09;99294.06;;;14.32;56.55
61113;BME280;47184;57.998;56.184;2023-04-27T03:26:36;99302.66;;;14.28;56.58
61113;BME280;47184;57.998;56.184;2023-04-27T03:29:03;99304.09;;;14.44;56.53
61113;BME280;47184;57.998;56.184;2023-04-27T03:31:29;99285.56;;;14.50;56.06
61113;BME280;47184;57.998;56.184;2023-04-27T03:33:55;99302.72;;;14.88;55.41
61113;BME280;47184;57.998;56.184;2023-04-27T03:36:22;99263.91;;;14.53;55.61
61113;BME280;47184;57.998;56.184;2023-04-27T03:38:48;99314.75;;;14.57;56.32
61113;BME280;47184;57.998;56.184;2023-04-27T03:41:14;99296.38;;;14.49;56.72
61113;BME280;47184;57.998;56.184;2023-04-27T03:43:40;99270.81;;;14.61;56.08
61113;BME280;47184;57.998;56.184;2023-04-27T03:46:07;99297.41;;;14.74;55.79
61113;BME280;47184;57.998;56.184;2023-04-27T03:48:33;99289.22;;;14.69;56.16
61113;BME280;47184;57.998;56.184;2023-04-27T03:51:00;99293.09;;;14.93;55.69
61113;BME280;47184;57.998;56.184;2023-04-27T03:53:26;99304.69;;;15.25;55.19
61113;BME280;47184;57.998;56.184;2023-04-27T03:55:53;99300.25;;;14.99;55.68
61113;BME280;47184;57.998;56.184;2023-04-27T03:58:19;99314.97;;;15.02;55.68
61113;BME280;47184;57.998;56.184;2023-04-27T04:01:05;99308.03;;;15.07;55.54
61113;BME280;47184;57.998;56.184;2023-04-27T04:03:35;99302.63;;;15.34;54.94
61113;BME280;47184;57.998;56.184;2023-04-27T04:06:06;99316.97;;;15.33;55.12
61113;BME280;47184;57.998;56.184;2023-04-27T04:08:32;99312.69;;;15.25;54.95
61113;BME280;47184;57.998;56.184;2023-04-27T04:11:00;99300.41;;;15.18;55.21
61113;BME280;47184;57.998;56.184;2023-04-27T04:13:28;99274.22;;;15.21;54.77
61113;BME280;47184;57.998;56.184;2023-04-27T04:16:05;99315.34;;;15.25;55.32
61113;BME280;47184;57.998;56.184;2023-04-27T04:18:33;99306.31;;;15.40;55.15
61113;BME280;47184;57.998;56.184;2023-04-27T04:20:59;99310.44;;;15.22;55.51
61113;BME280;47184;57.998;56.184;2023-04-27T04:23:25;99308.63;;;15.23;55.79
61113;BME280;47184;57.998;56.184;2023-04-27T04:25:56;99314.72;;;15.36;55.22
61113;BME280;47184;57.998;56.184;2023-04-27T04:28:25;99309.38;;;15.43;55.06
61113;BME280;47184;57.998;56.184;2023-04-27T04:30:51;99296.50;;;15.33;54.96
61113;BME280;47184;57.998;56.184;2023-04-27T04:33:18;99287.28;;;15.36;54.90
61113;BME280;47184;57.998;56.184;2023-04-27T04:35:44;99306.31;;;15.33;55.08
61113;BME280;47184;57.998;56.184;2023-04-27T04:38:11;99310.84;;;15.32;55.53
61113;BME280;47184;57.998;56.184;2023-04-27T04:40:39;99299.78;;;15.35;54.86
61113;BME280;47184;57.998;56.184;2023-04-27T04:43:06;99312.34;;;14.82;59.26
61113;BME280;47184;57.998;56.184;2023-04-27T04:45:32;99289.81;;;13.70;63.68
61113;BME280;47184;57.998;56.184;2023-04-27T04:47:59;99328.53;;;13.58;64.61
61113;BME280;47184;57.998;56.184;2023-04-27T04:50:26;99298.22;;;13.32;64.82
61113;BME280;47184;57.998;56.184;2023-04-27T04:52:52;99317.75;;;13.59;64.55
61113;BME280;47184;57.998;56.184;2023-04-27T04:55:18;99304.13;;;13.34;65.71
61113;BME280;47184;57.998;56.184;2023-04-27T04:57:44;99331.44;;;13.00;68.29
61113;BME280;47184;57.998;56.184;2023-04-27T05:00:11;99321.59;;;12.66;70.77
61113;BME280;47184;57.998;56.184;2023-04-27T05:02:39;99319.66;;;12.53;71.75
61113;BME280;47184;57.998;56.184;2023-04-27T05:05:06;99322.06;;;12.76;71.44
61113;BME280;47184;57.998;56.184;2023-04-27T05:07:33;99318.41;;;13.05;70.86
61113;BME280;47184;57.998;56.184;2023-04-27T05:09:59;99318.75;;;13.58;69.82
61113;BME280;47184;57.998;56.184;2023-04-27T05:12:26;99314.06;;;14.08;67.84
61113;BME280;47184;57.998;56.184;2023-04-27T05:14:52;99286.34;;;14.37;66.04
61113;BME280;47184;57.998;56.184;2023-04-27T05:17:18;99311.69;;;14.93;64.42
61113;BME280;47184;57.998;56.184;2023-04-27T05:19:44;99317.81;;;15.27;63.21
61113;BME280;47184;57.998;56.184;2023-04-27T05:22:11;99314.91;;;15.42;61.54
61113;BME280;47184;57.998;56.184;2023-04-27T05:24:37;99314.72;;;15.36;60.40
61113;BME280;47184;57.998;56.184;2023-04-27T05:27:03;99313.59;;;15.71;59.94
61113;BME280;47184;57.998;56.184;2023-04-27T05:29:29;99309.47;;;15.81;59.30
61113;BME280;47184;57.998;56.184;2023-04-27T05:31:55;99311.09;;;15.82;58.61
61113;BME280;47184;57.998;56.184;2023-04-27T05:34:21;99300.56;;;16.01;57.72
61113;BME280;47184;57.998;56.184;2023-04-27T05:36:47;99316.06;;;16.17;57.37
61113;BME280;47184;57.998;56.184;2023-04-27T05:39:14;99309.81;;;15.98;56.38
61113;BME280;47184;57.998;56.184;2023-04-27T05:41:40;99317.00;;;15.91;56.03
61113;BME280;47184;57.998;56.184;2023-04-27T05:44:06;99309.00;;;15.91;55.65
61113;BME280;47184;57.998;56.184;2023-04-27T05:46:32;99316.81;;;15.93;55.34
61113;BME280;47184;57.998;56.184;2023-04-27T05:48:58;99314.59;;;16.21;54.88
61113;BME280;47184;57.998;56.184;2023-04-27T05:51:25;99317.75;;;16.37;54.53
61113;BME280;47184;57.998;56.184;2023-04-27T05:53:51;99316.00;;;16.24;54.56
61113;BME280;47184;57.998;56.184;2023-04-27T05:56:21;99319.06;;;16.59;54.04
61113;BME280;47184;57.998;56.184;2023-04-27T05:58:47;99295.25;;;16.32;53.85
61113;BME280;47184;57.998;56.184;2023-04-27T06:01:14;99325.03;;;16.54;53.28
61113;BME280;47184;57.998;56.184;2023-04-27T06:03:40;99319.38;;;16.69;52.91
61113;BME280;47184;57.998;56.184;2023-04-27T06:06:06;99311.88;;;16.59;52.85
61113;BME280;47184;57.998;56.184;2023-04-27T06:08:32;99319.47;;;16.56;52.83
61113;BME280;47184;57.998;56.184;2023-04-27T06:11:02;99327.56;;;16.43;52.88
61113;BME280;47184;57.998;56.184;2023-04-27T06:13:29;99327.84;;;16.34;53.21
61113;BME280;47184;57.998;56.184;2023-04-27T06:15:56;99333.50;;;16.45;52.79
61113;BME280;47184;57.998;56.184;2023-04-27T06:18:22;99328.91;;;16.58;52.30
61113;BME280;47184;57.998;56.184;2023-04-27T06:20:48;99325.03;;;16.54;52.57
61113;BME280;47184;57.998;56.184;2023-04-27T06:23:15;99328.16;;;16.45;52.68
61113;BME280;47184;57.998;56.184;2023-04-27T06:25:41;99317.81;;;16.62;52.44
61113;BME280;47184;57.998;56.184;2023-04-27T06:28:07;99328.84;;;16.65;52.20
61113;BME280;47184;57.998;56.184;2023-04-27T06:30:33;99309.41;;;16.90;51.23
61113;BME280;47184;57.998;56.184;2023-04-27T06:33:00;99321.03;;;17.20;51.02
61113;BME280;47184;57.998;56.184;2023-04-27T06:35:26;99330.38;;;17.29;50.83
61113;BME280;47184;57.998;56.184;2023-04-27T06:37:52;99305.34;;;16.87;51.05
61113;BME280;47184;57.998;56.184;2023-04-27T06:40:24;99320.22;;;16.70;51.64
61113;BME280;47184;57.998;56.184;2023-04-27T06:42:51;99320.28;;;16.88;51.34
61113;BME280;47184;57.998;56.184;2023-04-27T06:45:17;99308.03;;;17.05;51.16
61113;BME280;47184;57.998;56.184;2023-04-27T06:47:44;99324.06;;;17.42;50.51
61113;BME280;47184;57.998;56.184;2023-04-27T06:50:10;99308.56;;;17.51;50.20
61113;BME280;47184;57.998;56.184;2023-04-27T06:52:36;99303.19;;;17.39;49.93
61113;BME280;47184;57.998;56.184;2023-04-27T06:55:03;99299.44;;;17.58;49.91
61113;BME280;47184;57.998;56.184;2023-04-27T06:57:31;99304.16;;;18.12;49.09
61113;BME280;47184;57.998;56.184;2023-04-27T06:59:57;99322.31;;;18.21;48.66
61113;BME280;47184;57.998;56.184;2023-04-27T07:02:23;99312.97;;;18.12;48.66
61113;BME280;47184;57.998;56.184;2023-04-27T07:04:49;99320.50;;;18.03;48.96
61113;BME280;47184;57.998;56.184;2023-04-27T07:07:16;99308.47;;;18.54;47.85
61113;BME280;47184;57.998;56.184;2023-04-27T07:09:43;99314.72;;;19.89;45.43
61113;BME280;47184;57.998;56.184;2023-04-27T07:12:09;99315.19;;;19.11;45.76
61113;BME280;47184;57.998;56.184;2023-04-27T07:14:35;99296.16;;;18.53;46.89
61113;BME280;47184;57.998;56.184;2023-04-27T07:17:01;99304.84;;;18.37;47.22
61113;BME280;47184;57.998;56.184;2023-04-27T07:19:27;99308.06;;;17.79;48.53
61113;BME280;47184;57.998;56.184;2023-04-27T07:21:53;99321.50;;;17.72;49.42
61113;BME280;47184;57.998;56.184;2023-04-27T07:24:20;99315.69;;;17.94;49.59
61113;BME280;47184;57.998;56.184;2023-04-27T07:26:46;99311.03;;;18.61;48.11
61113;BME280;47184;57.998;56.184;2023-04-27T07:29:13;99307.50;;;18.79;47.33
61113;BME280;47184;57.998;56.184;2023-04-27T07:31:40;99294.38;;;18.47;47.67
61113;BME280;47184;57.998;56.184;2023-04-27T07:34:07;99303.28;;;18.71;47.27
61113;BME280;47184;57.998;56.184;2023-04-27T07:36:33;99306.47;;;19.03;46.60
61113;BME280;47184;57.998;56.184;2023-04-27T07:38:59;99313.44;;;19.28;46.13
61113;BME280;47184;57.998;56.184;2023-04-27T07:41:26;99290.84;;;18.77;46.50
61113;BME280;47184;57.998;56.184;2023-04-27T07:43:52;99293.59;;;18.59;46.77
61113;BME280;47184;57.998;56.184;2023-04-27T07:46:18;99305.44;;;18.51;47.28
61113;BME280;47184;57.998;56.184;2023-04-27T07:48:45;99295.44;;;18.46;47.55
61113;BME280;47184;57.998;56.184;2023-04-27T07:51:12;99307.13;;;18.75;47.36
61113;BME280;47184;57.998;56.184;2023-04-27T07:53:40;99310.75;;;18.39;49.09
61113;BME280;47184;57.998;56.184;2023-04-27T07:56:06;99332.84;;;17.68;50.09
61113;BME280;47184;57.998;56.184;2023-04-27T07:58:36;99306.94;;;17.50;50.29
61113;BME280;47184;57.998;56.184;2023-04-27T08:01:03;99297.22;;;17.74;49.87
61113;BME280;47184;57.998;56.184;2023-04-27T08:03:29;99306.78;;;18.00;49.17
61113;BME280;47184;57.998;56.184;2023-04-27T08:05:55;99270.22;;;18.12;48.63
61113;BME280;47184;57.998;56.184;2023-04-27T08:08:21;99290.31;;;18.45;47.68
61113;BME280;47184;57.998;56.184;2023-04-27T08:10:47;99314.53;;;18.62;47.58
61113;BME280;47184;57.998;56.184;2023-04-27T08:13:13;99305.19;;;18.52;47.34
61113;BME280;47184;57.998;56.184;2023-04-27T08:15:39;99297.72;;;18.85;46.85
61113;BME280;47184;57.998;56.184;2023-04-27T08:18:05;99315.72;;;19.60;44.98
61113;BME280;47184;57.998;56.184;2023-04-27T08:20:31;99292.88;;;19.69;44.46
61113;BME280;47184;57.998;56.184;2023-04-27T08:22:57;99295.31;;;19.59;44.54
61113;BME280;47184;57.998;56.184;2023-04-27T08:25:24;99283.00;;;19.46;44.38
61113;BME280;47184;57.998;56.184;2023-04-27T08:27:51;99277.13;;;19.32;44.15
61113;BME280;47184;57.998;56.184;2023-04-27T08:30:17;99289.22;;;19.87;43.97
61113;BME280;47184;57.998;56.184;2023-04-27T08:32:43;99295.97;;;19.89;43.73
61113;BME280;47184;57.998;56.184;2023-04-27T08:35:09;99266.78;;;19.12;44.39
61113;BME280;47184;57.998;56.184;2023-04-27T08:37:36;99299.59;;;19.19;44.67
61113;BME280;47184;57.998;56.184;2023-04-27T08:40:04;99299.50;;;19.02;45.09
61113;BME280;47184;57.998;56.184;2023-04-27T08:42:31;99281.91;;;18.83;45.15
61113;BME280;47184;57.998;56.184;2023-04-27T08:44:58;99290.97;;;18.70;45.80
61113;BME280;47184;57.998;56.184;2023-04-27T08:47:24;99286.84;;;18.68;45.81
61113;BME280;47184;57.998;56.184;2023-04-27T08:49:50;99255.72;;;18.85;45.14
61113;BME280;47184;57.998;56.184;2023-04-27T08:52:16;99278.75;;;19.21;44.82
61113;BME280;47184;57.998;56.184;2023-04-27T08:54:43;99283.03;;;19.34;44.73
61113;BME280;47184;57.998;56.184;2023-04-27T08:57:10;99260.59;;;19.23;44.16
61113;BME280;47184;57.998;56.184;2023-04-27T08:59:38;99255.09;;;19.30;44.31
61113;BME280;47184;57.998;56.184;2023-04-27T09:02:05;99276.44;;;21.84;40.69
61113;BME280;47184;57.998;56.184;2023-04-27T09:04:38;99284.03;;;22.79;38.14
61113;BME280;47184;57.998;56.184;2023-04-27T09:07:15;99278.56;;;22.09;38.86
61113;BME280;47184;57.998;56.184;2023-04-27T09:09:43;99268.19;;;22.82;38.31
61113;BME280;47184;57.998;56.184;2023-04-27T09:12:20;99272.28;;;24.10;35.35
61113;BME280;47184;57.998;56.184;2023-04-27T09:15:00;99282.88;;;23.59;35.41
61113;BME280;47184;57.998;56.184;2023-04-27T09:17:32;99281.06;;;22.43;37.08
61113;BME280;47184;57.998;56.184;2023-04-27T09:20:06;99290.25;;;21.49;38.36
61113;BME280;47184;57.998;56.184;2023-04-27T09:22:46;99269.78;;;20.87;39.37
61113;BME280;47184;57.998;56.184;2023-04-27T09:25:30;99276.41;;;21.01;39.52
61113;BME280;47184;57.998;56.184;2023-04-27T09:27:57;99268.06;;;21.37;38.64
61113;BME280;47184;57.998;56.184;2023-04-27T09:30:24;99264.34;;;20.82;39.45
61113;BME280;47184;57.998;56.184;2023-04-27T09:32:55;99258.59;;;20.45;40.13
61113;BME280;47184;57.998;56.184;2023-04-27T09:35:25;99266.16;;;20.14;40.69
61113;BME280;47184;57.998;56.184;2023-04-27T09:37:52;99277.63;;;19.69;41.77
61113;BME280;47184;57.998;56.184;2023-04-27T09:40:20;99277.09;;;19.44;42.28
61113;BME280;47184;57.998;56.184;2023-04-27T09:42:56;99260.59;;;19.35;42.42
61113;BME280;47184;57.998;56.184;2023-04-27T09:45:25;99281.44;;;19.10;42.89
61113;BME280;47184;57.998;56.184;2023-04-27T09:47:52;99253.25;;;18.60;43.65
61113;BME280;47184;57.998;56.184;2023-04-27T09:50:19;99283.44;;;18.91;43.80
61113;BME280;47184;57.998;56.184;2023-04-27T09:52:49;99290.25;;;19.10;43.32
61113;BME280;47184;57.998;56.184;2023-04-27T09:55:24;99292.94;;;19.10;43.46
61113;BME280;47184;57.998;56.184;2023-04-27T10:04:00;99291.88;;;19.35;43.14
61113;BME280;47184;57.998;56.184;2023-04-27T10:09:02;99291.84;;;19.58;43.11
61113;BME280;47184;57.998;56.184;2023-04-27T10:11:39;99293.75;;;19.86;42.76
61113;BME280;47184;57.998;56.184;2023-04-27T10:14:15;99289.22;;;20.15;41.92
61113;BME280;47184;57.998;56.184;2023-04-27T10:16:48;99289.75;;;20.29;41.51
61113;BME280;47184;57.998;56.184;2023-04-27T10:19:14;99277.97;;;20.01;41.61
61113;BME280;47184;57.998;56.184;2023-04-27T10:21:58;99293.59;;;19.64;42.32
61113;BME280;47184;57.998;56.184;2023-04-27T10:27:05;99290.03;;;19.23;42.69
61113;BME280;47184;57.998;56.184;2023-04-27T10:29:42;99290.03;;;19.35;42.67
61113;BME280;47184;57.998;56.184;2023-04-27T10:32:19;99298.69;;;19.77;41.87
61113;BME280;47184;57.998;56.184;2023-04-27T10:34:50;99295.41;;;19.75;41.80
61113;BME280;47184;57.998;56.184;2023-04-27T10:37:17;99290.44;;;19.67;41.82
61113;BME280;47184;57.998;56.184;2023-04-27T10:39:50;99295.53;;;19.81;41.78
61113;BME280;47184;57.998;56.184;2023-04-27T10:42:26;99293.31;;;19.77;41.85
61113;BME280;47184;57.998;56.184;2023-04-27T10:44:56;99281.19;;;19.87;41.51
61113;BME280;47184;57.998;56.184;2023-04-27T10:47:23;99294.50;;;19.70;41.95
61113;BME280;47184;57.998;56.184;2023-04-27T10:49:52;99305.69;;;19.55;41.91
61113;BME280;47184;57.998;56.184;2023-04-27T10:52:21;99307.13;;;19.34;42.29
61113;BME280;47184;57.998;56.184;2023-04-27T10:54:47;99302.78;;;19.57;41.93
61113;BME280;47184;57.998;56.184;2023-04-27T10:57:13;99293.31;;;19.77;41.75
61113;BME280;47184;57.998;56.184;2023-04-27T10:59:51;99297.63;;;19.78;41.63
61113;BME280;47184;57.998;56.184;2023-04-27T11:02:24;99285.63;;;19.81;41.42
61113;BME280;47184;57.998;56.184;2023-04-27T11:04:51;99306.53;;;19.55;42.29
61113;BME280;47184;57.998;56.184;2023-04-27T11:07:27;99292.91;;;19.45;42.22
61113;BME280;47184;57.998;56.184;2023-04-27T11:09:54;99277.81;;;19.39;42.16
61113;BME280;47184;57.998;56.184;2023-04-27T11:12:20;99303.16;;;19.37;42.40
61113;BME280;47184;57.998;56.184;2023-04-27T11:14:46;99291.19;;;19.39;42.54
61113;BME280;47184;57.998;56.184;2023-04-27T11:17:12;99303.41;;;19.35;42.55
61113;BME280;47184;57.998;56.184;2023-04-27T11:19:46;99284.50;;;19.53;42.20
61113;BME280;47184;57.998;56.184;2023-04-27T11:22:13;99286.06;;;19.90;41.80
61113;BME280;47184;57.998;56.184;2023-04-27T11:24:49;99280.56;;;19.56;42.10
61113;BME280;47184;57.998;56.184;2023-04-27T11:27:16;99280.47;;;19.39;42.76
61113;BME280;47184;57.998;56.184;2023-04-27T11:29:42;99283.28;;;19.21;43.09
61113;BME280;47184;57.998;56.184;2023-04-27T11:32:21;99285.06;;;18.92;43.46
61113;BME280;47184;57.998;56.184;2023-04-27T11:34:49;99261.06;;;18.73;43.50
61113;BME280;47184;57.998;56.184;2023-04-27T11:37:24;99264.25;;;18.82;43.33
61113;BME280;47184;57.998;56.184;2023-04-27T11:39:52;99292.50;;;18.78;43.80
61113;BME280;47184;57.998;56.184;2023-04-27T11:42:24;99282.88;;;18.47;44.49
61113;BME280;47184;57.998;56.184;2023-04-27T11:45:01;99297.00;;;18.24;45.62
61113;BME280;47184;57.998;56.184;2023-04-27T11:47:33;99296.63;;;17.90;46.87
61113;BME280;47184;57.998;56.184;2023-04-27T11:50:03;99306.44;;;17.23;51.11
61113;BME280;47184;57.998;56.184;2023-04-27T11:52:35;99305.72;;;16.34;55.09
61113;BME280;47184;57.998;56.184;2023-04-27T11:55:02;99302.53;;;15.80;56.75
61113;BME280;47184;57.998;56.184;2023-04-27T11:57:34;99300.88;;;15.79;57.40
61113;BME280;47184;57.998;56.184;2023-04-27T12:00:03;99296.47;;;16.05;56.94
61113;BME280;47184;57.998;56.184;2023-04-27T12:02:41;99297.56;;;16.54;55.77
61113;BME280;47184;57.998;56.184;2023-04-27T12:05:08;99295.50;;;17.06;54.37
61113;BME280;47184;57.998;56.184;2023-04-27T12:07:35;99287.22;;;17.51;53.31
61113;BME280;47184;57.998;56.184;2023-04-27T12:10:01;99285.34;;;17.70;52.77
61113;BME280;47184;57.998;56.184;2023-04-27T12:12:31;99301.09;;;17.96;52.24
61113;BME280;47184;57.998;56.184;2023-04-27T12:14:58;99306.47;;;18.08;51.69
61113;BME280;47184;57.998;56.184;2023-04-27T12:17:24;99297.63;;;18.07;50.96
61113;BME280;47184;57.998;56.184;2023-04-27T12:19:50;99305.31;;;18.16;50.57
61113;BME280;47184;57.998;56.184;2023-04-27T12:22:16;99299.97;;;18.16;49.78
61113;BME280;47184;57.998;56.184;2023-04-27T12:24:42;99297.72;;;18.31;49.51
61113;BME280;47184;57.998;56.184;2023-04-27T12:27:09;99275.88;;;18.34;49.17
61113;BME280;47184;57.998;56.184;2023-04-27T12:29:35;99296.81;;;18.49;48.86
61113;BME280;47184;57.998;56.184;2023-04-27T12:32:02;99298.69;;;18.48;48.23
61113;BME280;47184;57.998;56.184;2023-04-27T12:34:28;99300.31;;;18.61;48.09
61113;BME280;47184;57.998;56.184;2023-04-27T12:36:54;99299.41;;;18.67;47.77
61113;BME280;47184;57.998;56.184;2023-04-27T12:39:22;99291.50;;;18.61;47.62
61113;BME280;47184;57.998;56.184;2023-04-27T12:41:51;99274.97;;;18.52;47.28
61113;BME280;47184;57.998;56.184;2023-04-27T12:44:19;99294.88;;;18.68;47.27
61113;BME280;47184;57.998;56.184;2023-04-27T12:46:45;99297.66;;;18.61;47.24
61113;BME280;47184;57.998;56.184;2023-04-27T12:49:16;99286.84;;;18.68;47.22
61113;BME280;47184;57.998;56.184;2023-04-27T12:51:42;99292.44;;;18.66;46.74
61113;BME280;47184;57.998;56.184;2023-04-27T12:54:09;99277.22;;;18.67;46.40
61113;BME280;47184;57.998;56.184;2023-04-27T12:56:36;99291.09;;;18.75;46.18
61113;BME280;47184;57.998;56.184;2023-04-27T12:59:03;99294.75;;;18.63;46.23
61113;BME280;47184;57.998;56.184;2023-04-27T13:01:30;99295.47;;;18.58;46.09
61113;BME280;47184;57.998;56.184;2023-04-27T13:04:02;99271.81;;;18.43;46.42